sensor_id;sensor_type;location;lat;lon;timestamp;temperature;humidity
34283;DHT22;20542;49.828;8.746;2022-08-19T00:01:28;20.90;99.90
34283;DHT22;20542;49.828;8.746;2022-08-19T00:03:55;20.90;99.90
34283;DHT22;20542;49.828;8.746;2022-08-19T00:06:21;20.90;99.90
34283;DHT22;20542;49.828;8.746;2022-08-19T00:08:46;20.90;99.90
34283;DHT22;20542;49.828;8.746;2022-08-19T00:11:13;21.00;99.90
34283;DHT22;20542;49.828;8.746;2022-08-19T00:13:39;20.90;99.90
34283;DHT22;20542;49.828;8.746;2022-08-19T00:16:06;20.90;99.90
34283;DHT22;20542;49.828;8.746;2022-08-19T00:18:32;20.90;99.90
34283;DHT22;20542;49.828;8.746;2022-08-19T00:20:58;21.00;99.90
34283;DHT22;20542;49.828;8.746;2022-08-19T00:23:25;20.90;99.90
34283;DHT22;20542;49.828;8.746;2022-08-19T00:25:51;20.90;99.90
34283;DHT22;20542;49.828;8.746;2022-08-19T00:28:18;20.90;99.90
34283;DHT22;20542;49.828;8.746;2022-08-19T00:30:43;21.00;99.90
34283;DHT22;20542;49.828;8.746;2022-08-19T00:33:09;21.00;99.90
34283;DHT22;20542;49.828;8.746;2022-08-19T00:35:35;21.00;99.90
34283;DHT22;20542;49.828;8.746;2022-08-19T00:38:00;21.00;99.90
34283;DHT22;20542;49.828;8.746;2022-08-19T00:40:26;21.00;99.90
34283;DHT22;20542;49.828;8.746;2022-08-19T00:42:51;21.00;99.90
34283;DHT22;20542;49.828;8.746;2022-08-19T00:45:25;21.00;99.90
34283;DHT22;20542;49.828;8.746;2022-08-19T00:47:51;21.00;99.90
34283;DHT22;20542;49.828;8.746;2022-08-19T00:50:18;21.00;99.90
34283;DHT22;20542;49.828;8.746;2022-08-19T00:52:47;21.00;99.90
34283;DHT22;20542;49.828;8.746;2022-08-19T00:55:20;21.00;99.90
34283;DHT22;20542;49.828;8.746;2022-08-19T00:57:52;21.00;99.90
34283;DHT22;20542;49.828;8.746;2022-08-19T01:00:20;21.00;99.90
34283;DHT22;20542;49.828;8.746;2022-08-19T01:02:46;21.00;99.90
34283;DHT22;20542;49.828;8.746;2022-08-19T01:05:16;21.10;99.90
34283;DHT22;20542;49.828;8.746;2022-08-19T01:07:43;21.10;99.90
34283;DHT22;20542;49.828;8.746;2022-08-19T01:10:12;21.10;99.90
34283;DHT22;20542;49.828;8.746;2022-08-19T01:12:40;21.00;99.90
34283;DHT22;20542;49.828;8.746;2022-08-19T01:15:07;21.10;99.90
34283;DHT22;20542;49.828;8.746;2022-08-19T01:17:34;21.10;99.90
34283;DHT22;20542;49.828;8.746;2022-08-19T01:20:03;21.10;99.90
34283;DHT22;20542;49.828;8.746;2022-08-19T01:22:37;21.00;99.90
34283;DHT22;20542;49.828;8.746;2022-08-19T01:25:06;21.00;99.90
34283;DHT22;20542;49.828;8.746;2022-08-19T01:27:40;21.00;99.90
34283;DHT22;20542;49.828;8.746;2022-08-19T01:30:07;20.90;99.90
34283;DHT22;20542;49.828;8.746;2022-08-19T01:32:33;20.90;99.90
34283;DHT22;20542;49.828;8.746;2022-08-19T01:34:59;20.90;99.90
34283;DHT22;20542;49.828;8.746;2022-08-19T01:37:27;20.90;99.90
34283;DHT22;20542;49.828;8.746;2022-08-19T01:39:53;20.90;99.90
34283;DHT22;20542;49.828;8.746;2022-08-19T01:42:18;21.00;99.90
34283;DHT22;20542;49.828;8.746;2022-08-19T01:44:45;21.00;99.90
34283;DHT22;20542;49.828;8.746;2022-08-19T01:47:10;21.00;99.90
34283;DHT22;20542;49.828;8.746;2022-08-19T01:49:36;21.00;99.90
34283;DHT22;20542;49.828;8.746;2022-08-19T01:52:03;21.00;99.90
34283;DHT22;20542;49.828;8.746;2022-08-19T01:54:29;21.00;99.90
34283;DHT22;20542;49.828;8.746;2022-08-19T01:57:07;21.00;99.90
34283;DHT22;20542;49.828;8.746;2022-08-19T01:59:34;21.00;99.90
34283;DHT22;20542;49.828;8.746;2022-08-19T02:02:03;21.00;99.90
34283;DHT22;20542;49.828;8.746;2022-08-19T02:04:29;21.00;99.90
34283;DHT22;20542;49.828;8.746;2022-08-19T02:06:55;21.00;99.90
34283;DHT22;20542;49.828;8.746;2022-08-19T02:09:20;21.10;99.90
34283;DHT22;20542;49.828;8.746;2022-08-19T02:11:46;21.10;99.90
34283;DHT22;20542;49.828;8.746;2022-08-19T02:14:12;21.10;99.90
34283;DHT22;20542;49.828;8.746;2022-08-19T02:16:38;21.10;99.90
34283;DHT22;20542;49.828;8.746;2022-08-19T02:19:05;21.10;99.90
34283;DHT22;20542;49.828;8.746;2022-08-19T02:21:31;21.10;99.90
34283;DHT22;20542;49.828;8.746;2022-08-19T02:23:57;21.10;99.90
34283;DHT22;20542;49.828;8.746;2022-08-19T02:26:23;21.20;99.90
34283;DHT22;20542;49.828;8.746;2022-08-19T02:28:49;21.20;99.90
34283;DHT22;20542;49.828;8.746;2022-08-19T02:31:17;21.20;99.90
34283;DHT22;20542;49.828;8.746;2022-08-19T02:33:44;21.30;99.90
34283;DHT22;20542;49.828;8.746;2022-08-19T02:36:11;21.30;99.90
34283;DHT22;20542;49.828;8.746;2022-08-19T02:38:37;21.30;99.90
34283;DHT22;20542;49.828;8.746;2022-08-19T02:41:06;21.30;99.90
34283;DHT22;20542;49.828;8.746;2022-08-19T02:43:33;21.20;99.90
34283;DHT22;20542;49.828;8.746;2022-08-19T02:46:13;21.20;99.90
34283;DHT22;20542;49.828;8.746;2022-08-19T02:48:39;21.20;99.90
34283;DHT22;20542;49.828;8.746;2022-08-19T02:51:04;21.20;99.90
34283;DHT22;20542;49.828;8.746;2022-08-19T02:53:31;21.20;99.90
34283;DHT22;20542;49.828;8.746;2022-08-19T02:55:56;21.20;99.90
34283;DHT22;20542;49.828;8.746;2022-08-19T02:58:23;21.20;99.90
34283;DHT22;20542;49.828;8.746;2022-08-19T03:00:53;21.20;99.90
34283;DHT22;20542;49.828;8.746;2022-08-19T03:03:19;21.10;99.90
34283;DHT22;20542;49.828;8.746;2022-08-19T03:05:45;21.10;99.90
34283;DHT22;20542;49.828;8.746;2022-08-19T03:08:12;21.10;99.90
34283;DHT22;20542;49.828;8.746;2022-08-19T03:10:43;21.20;99.90
34283;DHT22;20542;49.828;8.746;2022-08-19T03:13:11;21.10;99.90
34283;DHT22;20542;49.828;8.746;2022-08-19T03:15:42;21.10;99.90
34283;DHT22;20542;49.828;8.746;2022-08-19T03:18:08;21.10;99.90
34283;DHT22;20542;49.828;8.746;2022-08-19T03:20:34;21.10;99.90
34283;DHT22;20542;49.828;8.746;2022-08-19T03:22:59;21.10;99.90
34283;DHT22;20542;49.828;8.746;2022-08-19T03:25:25;21.00;99.90
34283;DHT22;20542;49.828;8.746;2022-08-19T03:27:50;20.90;99.90
34283;DHT22;20542;49.828;8.746;2022-08-19T03:30:16;20.90;99.90
34283;DHT22;20542;49.828;8.746;2022-08-19T03:32:41;20.80;99.90
34283;DHT22;20542;49.828;8.746;2022-08-19T03:35:08;20.80;99.90
34283;DHT22;20542;49.828;8.746;2022-08-19T03:37:33;20.70;99.90
34283;DHT22;20542;49.828;8.746;2022-08-19T03:39:59;20.60;99.90
34283;DHT22;20542;49.828;8.746;2022-08-19T03:42:26;20.70;99.90
34283;DHT22;20542;49.828;8.746;2022-08-19T03:44:52;20.60;99.90
34283;DHT22;20542;49.828;8.746;2022-08-19T03:47:17;20.50;99.90
34283;DHT22;20542;49.828;8.746;2022-08-19T03:49:44;20.60;99.90
34283;DHT22;20542;49.828;8.746;2022-08-19T03:52:09;20.50;99.90
34283;DHT22;20542;49.828;8.746;2022-08-19T03:54:36;20.50;99.90
34283;DHT22;20542;49.828;8.746;2022-08-19T03:57:03;20.50;99.90
34283;DHT22;20542;49.828;8.746;2022-08-19T03:59:31;20.40;99.90
34283;DHT22;20542;49.828;8.746;2022-08-19T04:01:59;20.40;99.90
34283;DHT22;20542;49.828;8.746;2022-08-19T04:04:25;20.30;99.90
34283;DHT22;20542;49.828;8.746;2022-08-19T04:06:51;20.40;99.90
34283;DHT22;20542;49.828;8.746;2022-08-19T04:09:18;20.50;99.90
34283;DHT22;20542;49.828;8.746;2022-08-19T04:11:51;20.50;99.90
34283;DHT22;20542;49.828;8.746;2022-08-19T04:14:22;20.50;99.90
34283;DHT22;20542;49.828;8.746;2022-08-19T04:16:50;20.50;99.90
34283;DHT22;20542;49.828;8.746;2022-08-19T04:19:16;20.50;99.90
34283;DHT22;20542;49.828;8.746;2022-08-19T04:21:53;20.40;99.90
34283;DHT22;20542;49.828;8.746;2022-08-19T04:24:20;20.30;99.90
34283;DHT22;20542;49.828;8.746;2022-08-19T04:26:46;20.50;99.90
34283;DHT22;20542;49.828;8.746;2022-08-19T04:29:15;20.50;99.90
34283;DHT22;20542;49.828;8.746;2022-08-19T04:31:43;20.50;99.90
34283;DHT22;20542;49.828;8.746;2022-08-19T04:34:10;20.50;99.90
34283;DHT22;20542;49.828;8.746;2022-08-19T04:36:37;20.50;99.90
34283;DHT22;20542;49.828;8.746;2022-08-19T04:39:07;20.60;99.90
34283;DHT22;20542;49.828;8.746;2022-08-19T04:41:33;20.60;99.90
34283;DHT22;20542;49.828;8.746;2022-08-19T04:44:18;20.70;99.90
34283;DHT22;20542;49.828;8.746;2022-08-19T04:46:47;20.70;99.90
34283;DHT22;20542;49.828;8.746;2022-08-19T04:49:14;20.70;99.90
34283;DHT22;20542;49.828;8.746;2022-08-19T04:51:43;20.70;99.90
34283;DHT22;20542;49.828;8.746;2022-08-19T04:54:09;20.70;99.90
34283;DHT22;20542;49.828;8.746;2022-08-19T04:56:35;20.70;99.90
34283;DHT22;20542;49.828;8.746;2022-08-19T04:59:01;20.70;99.90
34283;DHT22;20542;49.828;8.746;2022-08-19T05:01:32;20.70;99.90
34283;DHT22;20542;49.828;8.746;2022-08-19T05:04:01;20.70;99.90
34283;DHT22;20542;49.828;8.746;2022-08-19T05:06:28;20.70;99.90
34283;DHT22;20542;49.828;8.746;2022-08-19T05:08:54;20.70;99.90
34283;DHT22;20542;49.828;8.746;2022-08-19T05:11:24;20.80;99.90
34283;DHT22;20542;49.828;8.746;2022-08-19T05:13:51;20.70;99.90
34283;DHT22;20542;49.828;8.746;2022-08-19T05:16:19;20.70;99.90
34283;DHT22;20542;49.828;8.746;2022-08-19T05:18:45;20.70;99.90
34283;DHT22;20542;49.828;8.746;2022-08-19T05:21:30;20.80;99.90
34283;DHT22;20542;49.828;8.746;2022-08-19T05:24:16;20.90;99.90
34283;DHT22;20542;49.828;8.746;2022-08-19T05:26:43;21.00;99.90
34283;DHT22;20542;49.828;8.746;2022-08-19T05:29:12;21.00;99.90
34283;DHT22;20542;49.828;8.746;2022-08-19T05:31:38;21.10;99.90
34283;DHT22;20542;49.828;8.746;2022-08-19T05:34:04;21.00;99.90
34283;DHT22;20542;49.828;8.746;2022-08-19T05:36:34;21.10;99.90
34283;DHT22;20542;49.828;8.746;2022-08-19T05:39:01;21.10;99.90
34283;DHT22;20542;49.828;8.746;2022-08-19T05:41:26;21.20;99.90
34283;DHT22;20542;49.828;8.746;2022-08-19T05:44:02;21.20;99.90
34283;DHT22;20542;49.828;8.746;2022-08-19T05:46:31;21.20;99.90
34283;DHT22;20542;49.828;8.746;2022-08-19T05:48:57;21.30;99.90
34283;DHT22;20542;49.828;8.746;2022-08-19T05:51:24;21.30;99.90
34283;DHT22;20542;49.828;8.746;2022-08-19T05:53:50;21.30;99.90
34283;DHT22;20542;49.828;8.746;2022-08-19T05:56:17;21.30;99.90
34283;DHT22;20542;49.828;8.746;2022-08-19T05:58:44;21.50;99.90
34283;DHT22;20542;49.828;8.746;2022-08-19T06:01:16;21.60;99.90
34283;DHT22;20542;49.828;8.746;2022-08-19T06:03:42;21.70;99.90
34283;DHT22;20542;49.828;8.746;2022-08-19T06:06:10;21.70;99.90
34283;DHT22;20542;49.828;8.746;2022-08-19T06:08:36;21.70;99.90
34283;DHT22;20542;49.828;8.746;2022-08-19T06:14:11;21.90;99.90
34283;DHT22;20542;49.828;8.746;2022-08-19T06:16:38;22.00;99.90
34283;DHT22;20542;49.828;8.746;2022-08-19T06:19:07;22.20;99.90
34283;DHT22;20542;49.828;8.746;2022-08-19T06:21:34;22.40;99.90
34283;DHT22;20542;49.828;8.746;2022-08-19T06:24:03;22.50;99.90
34283;DHT22;20542;49.828;8.746;2022-08-19T06:26:29;22.50;99.90
34283;DHT22;20542;49.828;8.746;2022-08-19T06:28:56;22.50;99.90
34283;DHT22;20542;49.828;8.746;2022-08-19T06:31:25;22.60;99.90
34283;DHT22;20542;49.828;8.746;2022-08-19T06:33:51;22.70;99.90
34283;DHT22;20542;49.828;8.746;2022-08-19T06:36:26;22.70;99.90
34283;DHT22;20542;49.828;8.746;2022-08-19T06:38:53;22.80;99.90
34283;DHT22;20542;49.828;8.746;2022-08-19T06:41:20;22.90;99.90
34283;DHT22;20542;49.828;8.746;2022-08-19T06:43:45;22.90;99.90
34283;DHT22;20542;49.828;8.746;2022-08-19T06:46:16;22.80;99.90
34283;DHT22;20542;49.828;8.746;2022-08-19T06:48:43;22.90;99.90
34283;DHT22;20542;49.828;8.746;2022-08-19T06:51:09;22.90;99.90
34283;DHT22;20542;49.828;8.746;2022-08-19T06:53:34;22.90;99.90
34283;DHT22;20542;49.828;8.746;2022-08-19T06:56:00;22.90;99.90
34283;DHT22;20542;49.828;8.746;2022-08-19T06:58:29;22.90;99.90
34283;DHT22;20542;49.828;8.746;2022-08-19T07:01:01;22.90;99.90
34283;DHT22;20542;49.828;8.746;2022-08-19T07:03:32;23.00;99.90
34283;DHT22;20542;49.828;8.746;2022-08-19T07:06:03;23.00;99.90
34283;DHT22;20542;49.828;8.746;2022-08-19T07:08:29;23.00;99.90
34283;DHT22;20542;49.828;8.746;2022-08-19T07:10:54;22.90;99.90
34283;DHT22;20542;49.828;8.746;2022-08-19T07:13:20;23.00;99.90
34283;DHT22;20542;49.828;8.746;2022-08-19T07:15:47;23.10;99.90
34283;DHT22;20542;49.828;8.746;2022-08-19T07:18:14;22.90;99.90
34283;DHT22;20542;49.828;8.746;2022-08-19T07:20:40;22.80;99.90
34283;DHT22;20542;49.828;8.746;2022-08-19T07:23:07;22.80;99.90
34283;DHT22;20542;49.828;8.746;2022-08-19T07:25:32;22.90;99.90
34283;DHT22;20542;49.828;8.746;2022-08-19T07:27:58;22.90;99.90
34283;DHT22;20542;49.828;8.746;2022-08-19T07:30:23;22.80;99.90
34283;DHT22;20542;49.828;8.746;2022-08-19T07:32:49;22.90;99.90
34283;DHT22;20542;49.828;8.746;2022-08-19T07:35:16;23.00;99.90
34283;DHT22;20542;49.828;8.746;2022-08-19T07:37:44;23.00;99.90
34283;DHT22;20542;49.828;8.746;2022-08-19T07:40:11;23.10;99.90
34283;DHT22;20542;49.828;8.746;2022-08-19T07:42:37;23.20;99.90
34283;DHT22;20542;49.828;8.746;2022-08-19T07:45:03;23.20;99.90
34283;DHT22;20542;49.828;8.746;2022-08-19T07:47:29;23.20;99.90
34283;DHT22;20542;49.828;8.746;2022-08-19T07:49:55;23.10;99.90
34283;DHT22;20542;49.828;8.746;2022-08-19T07:52:21;23.20;99.90
34283;DHT22;20542;49.828;8.746;2022-08-19T07:54:47;23.30;99.90
34283;DHT22;20542;49.828;8.746;2022-08-19T07:57:13;23.40;99.90
34283;DHT22;20542;49.828;8.746;2022-08-19T07:59:39;23.60;99.90
34283;DHT22;20542;49.828;8.746;2022-08-19T08:02:06;23.60;99.90
34283;DHT22;20542;49.828;8.746;2022-08-19T08:04:31;23.70;99.90
34283;DHT22;20542;49.828;8.746;2022-08-19T08:07:15;23.70;99.90
34283;DHT22;20542;49.828;8.746;2022-08-19T08:09:59;23.80;99.90
34283;DHT22;20542;49.828;8.746;2022-08-19T08:12:29;23.80;99.90
34283;DHT22;20542;49.828;8.746;2022-08-19T08:14:58;23.70;99.90
34283;DHT22;20542;49.828;8.746;2022-08-19T08:17:28;23.60;99.90
34283;DHT22;20542;49.828;8.746;2022-08-19T08:19:54;23.60;99.90
34283;DHT22;20542;49.828;8.746;2022-08-19T08:22:21;23.60;99.90
34283;DHT22;20542;49.828;8.746;2022-08-19T08:25:15;23.70;99.90
34283;DHT22;20542;49.828;8.746;2022-08-19T08:27:43;23.80;99.90
34283;DHT22;20542;49.828;8.746;2022-08-19T08:30:11;23.90;99.90
34283;DHT22;20542;49.828;8.746;2022-08-19T08:32:39;23.90;99.90
34283;DHT22;20542;49.828;8.746;2022-08-19T08:35:06;24.10;99.90
34283;DHT22;20542;49.828;8.746;2022-08-19T08:37:32;24.20;99.90
34283;DHT22;20542;49.828;8.746;2022-08-19T08:39:58;24.40;99.90
34283;DHT22;20542;49.828;8.746;2022-08-19T08:42:30;24.70;99.90
34283;DHT22;20542;49.828;8.746;2022-08-19T08:45:14;24.80;99.90
34283;DHT22;20542;49.828;8.746;2022-08-19T08:47:47;24.70;99.90
34283;DHT22;20542;49.828;8.746;2022-08-19T08:50:18;24.80;99.90
34283;DHT22;20542;49.828;8.746;2022-08-19T08:52:47;25.10;99.90
34283;DHT22;20542;49.828;8.746;2022-08-19T08:55:18;25.50;99.90
34283;DHT22;20542;49.828;8.746;2022-08-19T09:00:43;25.70;99.90
34283;DHT22;20542;49.828;8.746;2022-08-19T09:03:09;26.00;99.90
34283;DHT22;20542;49.828;8.746;2022-08-19T09:05:53;26.30;99.90
34283;DHT22;20542;49.828;8.746;2022-08-19T09:08:48;26.30;99.90
34283;DHT22;20542;49.828;8.746;2022-08-19T09:11:22;26.50;99.90
34283;DHT22;20542;49.828;8.746;2022-08-19T09:16:41;25.90;99.90
34283;DHT22;20542;49.828;8.746;2022-08-19T09:19:08;26.20;99.90
34283;DHT22;20542;49.828;8.746;2022-08-19T09:21:33;26.20;99.90
34283;DHT22;20542;49.828;8.746;2022-08-19T09:24:01;25.90;99.90
34283;DHT22;20542;49.828;8.746;2022-08-19T09:26:26;26.20;99.90
34283;DHT22;20542;49.828;8.746;2022-08-19T09:28:53;26.00;99.90
34283;DHT22;20542;49.828;8.746;2022-08-19T09:31:23;25.90;99.90
34283;DHT22;20542;49.828;8.746;2022-08-19T09:33:49;26.10;99.90
34283;DHT22;20542;49.828;8.746;2022-08-19T09:36:18;26.30;99.90
34283;DHT22;20542;49.828;8.746;2022-08-19T09:38:44;26.10;99.90
34283;DHT22;20542;49.828;8.746;2022-08-19T09:41:14;25.90;99.90
34283;DHT22;20542;49.828;8.746;2022-08-19T09:43:41;25.80;99.90
34283;DHT22;20542;49.828;8.746;2022-08-19T09:46:09;26.10;99.90
34283;DHT22;20542;49.828;8.746;2022-08-19T09:48:36;26.10;99.90
34283;DHT22;20542;49.828;8.746;2022-08-19T09:51:07;26.10;99.90
34283;DHT22;20542;49.828;8.746;2022-08-19T09:53:34;26.00;99.90
34283;DHT22;20542;49.828;8.746;2022-08-19T09:55:59;26.30;99.90
34283;DHT22;20542;49.828;8.746;2022-08-19T09:58:25;26.40;99.90
34283;DHT22;20542;49.828;8.746;2022-08-19T10:00:54;26.30;99.90
34283;DHT22;20542;49.828;8.746;2022-08-19T10:03:20;26.10;99.90
34283;DHT22;20542;49.828;8.746;2022-08-19T10:05:45;26.10;99.90
34283;DHT22;20542;49.828;8.746;2022-08-19T10:08:20;26.20;99.90
34283;DHT22;20542;49.828;8.746;2022-08-19T10:10:47;26.10;99.90
34283;DHT22;20542;49.828;8.746;2022-08-19T10:13:15;26.00;99.90
34283;DHT22;20542;49.828;8.746;2022-08-19T10:15:41;25.80;99.90
34283;DHT22;20542;49.828;8.746;2022-08-19T10:18:07;25.60;99.90
34283;DHT22;20542;49.828;8.746;2022-08-19T10:20:33;25.80;99.90
34283;DHT22;20542;49.828;8.746;2022-08-19T10:23:01;25.80;99.90
34283;DHT22;20542;49.828;8.746;2022-08-19T10:25:28;25.70;99.90
34283;DHT22;20542;49.828;8.746;2022-08-19T10:27:53;25.90;99.90
34283;DHT22;20542;49.828;8.746;2022-08-19T10:30:19;26.20;99.90
34283;DHT22;20542;49.828;8.746;2022-08-19T10:32:45;26.60;99.90
34283;DHT22;20542;49.828;8.746;2022-08-19T10:35:11;26.80;99.90
34283;DHT22;20542;49.828;8.746;2022-08-19T10:37:38;26.90;99.90
34283;DHT22;20542;49.828;8.746;2022-08-19T10:40:08;26.90;99.90
34283;DHT22;20542;49.828;8.746;2022-08-19T10:42:36;26.70;99.90
34283;DHT22;20542;49.828;8.746;2022-08-19T10:45:03;26.50;99.90
34283;DHT22;20542;49.828;8.746;2022-08-19T10:47:31;26.70;99.90
34283;DHT22;20542;49.828;8.746;2022-08-19T10:49:57;26.80;99.90
34283;DHT22;20542;49.828;8.746;2022-08-19T10:52:43;27.10;99.90
34283;DHT22;20542;49.828;8.746;2022-08-19T10:55:08;27.40;99.90
34283;DHT22;20542;49.828;8.746;2022-08-19T10:57:53;27.50;99.90
34283;DHT22;20542;49.828;8.746;2022-08-19T11:00:20;27.50;99.90
34283;DHT22;20542;49.828;8.746;2022-08-19T11:02:46;27.60;99.90
34283;DHT22;20542;49.828;8.746;2022-08-19T11:05:12;27.60;99.90
34283;DHT22;20542;49.828;8.746;2022-08-19T11:07:40;27.50;99.90
34283;DHT22;20542;49.828;8.746;2022-08-19T11:10:08;27.20;99.90
34283;DHT22;20542;49.828;8.746;2022-08-19T11:12:35;27.00;99.90
34283;DHT22;20542;49.828;8.746;2022-08-19T11:15:01;26.80;99.90
34283;DHT22;20542;49.828;8.746;2022-08-19T11:17:27;27.10;99.90
34283;DHT22;20542;49.828;8.746;2022-08-19T11:19:52;27.60;99.90
34283;DHT22;20542;49.828;8.746;2022-08-19T11:22:18;27.80;99.90
34283;DHT22;20542;49.828;8.746;2022-08-19T11:24:43;28.10;99.90
34283;DHT22;20542;49.828;8.746;2022-08-19T11:27:10;28.30;99.90
34283;DHT22;20542;49.828;8.746;2022-08-19T11:29:38;28.00;99.90
34283;DHT22;20542;49.828;8.746;2022-08-19T11:32:06;27.90;99.90
34283;DHT22;20542;49.828;8.746;2022-08-19T11:34:32;27.90;99.90
34283;DHT22;20542;49.828;8.746;2022-08-19T11:36:58;28.20;99.90
34283;DHT22;20542;49.828;8.746;2022-08-19T11:39:26;28.30;99.90
34283;DHT22;20542;49.828;8.746;2022-08-19T11:41:52;28.40;99.90
34283;DHT22;20542;49.828;8.746;2022-08-19T11:44:18;28.60;99.90
34283;DHT22;20542;49.828;8.746;2022-08-19T11:46:45;28.70;99.90
34283;DHT22;20542;49.828;8.746;2022-08-19T11:49:13;28.90;99.90
34283;DHT22;20542;49.828;8.746;2022-08-19T11:51:39;29.00;99.90
34283;DHT22;20542;49.828;8.746;2022-08-19T11:54:05;29.10;99.90
34283;DHT22;20542;49.828;8.746;2022-08-19T11:56:31;28.60;99.90
34283;DHT22;20542;49.828;8.746;2022-08-19T11:58:57;28.30;99.90
34283;DHT22;20542;49.828;8.746;2022-08-19T12:01:25;28.30;99.90
34283;DHT22;20542;49.828;8.746;2022-08-19T12:03:52;28.60;99.90
34283;DHT22;20542;49.828;8.746;2022-08-19T12:06:22;28.80;99.90
34283;DHT22;20542;49.828;8.746;2022-08-19T12:08:52;29.00;99.90
34283;DHT22;20542;49.828;8.746;2022-08-19T12:11:19;29.10;99.90
34283;DHT22;20542;49.828;8.746;2022-08-19T12:13:44;29.10;99.90
34283;DHT22;20542;49.828;8.746;2022-08-19T12:16:17;28.90;99.90
34283;DHT22;20542;49.828;8.746;2022-08-19T12:18:43;28.70;99.90
34283;DHT22;20542;49.828;8.746;2022-08-19T12:21:13;28.10;99.90
34283;DHT22;20542;49.828;8.746;2022-08-19T12:23:40;27.80;99.90
34283;DHT22;20542;49.828;8.746;2022-08-19T12:26:05;27.70;99.90
34283;DHT22;20542;49.828;8.746;2022-08-19T12:28:31;27.50;99.90
34283;DHT22;20542;49.828;8.746;2022-08-19T12:30:57;27.60;99.90
34283;DHT22;20542;49.828;8.746;2022-08-19T12:33:23;27.60;99.90
34283;DHT22;20542;49.828;8.746;2022-08-19T12:35:51;27.70;99.90
34283;DHT22;20542;49.828;8.746;2022-08-19T12:38:18;28.10;99.90
34283;DHT22;20542;49.828;8.746;2022-08-19T12:40:47;28.30;99.90
34283;DHT22;20542;49.828;8.746;2022-08-19T12:43:14;28.40;99.90
34283;DHT22;20542;49.828;8.746;2022-08-19T12:45:41;28.50;99.90
34283;DHT22;20542;49.828;8.746;2022-08-19T12:48:08;28.50;99.90
34283;DHT22;20542;49.828;8.746;2022-08-19T12:50:34;28.40;99.90
34283;DHT22;20542;49.828;8.746;2022-08-19T12:52:59;28.50;99.90
34283;DHT22;20542;49.828;8.746;2022-08-19T12:55:25;28.40;99.90
34283;DHT22;20542;49.828;8.746;2022-08-19T12:57:53;28.50;99.90
34283;DHT22;20542;49.828;8.746;2022-08-19T13:00:20;28.60;99.90
34283;DHT22;20542;49.828;8.746;2022-08-19T13:02:48;28.90;99.90
34283;DHT22;20542;49.828;8.746;2022-08-19T13:05:19;29.10;99.90
34283;DHT22;20542;49.828;8.746;2022-08-19T13:07:46;28.90;99.90
34283;DHT22;20542;49.828;8.746;2022-08-19T13:10:14;28.80;99.90
34283;DHT22;20542;49.828;8.746;2022-08-19T13:12:44;28.50;99.90
34283;DHT22;20542;49.828;8.746;2022-08-19T13:15:12;28.50;99.90
34283;DHT22;20542;49.828;8.746;2022-08-19T13:17:39;28.30;99.90
34283;DHT22;20542;49.828;8.746;2022-08-19T13:20:06;28.50;99.90
34283;DHT22;20542;49.828;8.746;2022-08-19T13:22:33;28.60;99.90
34283;DHT22;20542;49.828;8.746;2022-08-19T13:25:00;28.80;99.90
34283;DHT22;20542;49.828;8.746;2022-08-19T13:27:26;29.00;99.90
34283;DHT22;20542;49.828;8.746;2022-08-19T13:29:51;29.30;99.90
34283;DHT22;20542;49.828;8.746;2022-08-19T13:32:36;29.60;99.90
34283;DHT22;20542;49.828;8.746;2022-08-19T13:35:20;29.80;99.90
34283;DHT22;20542;49.828;8.746;2022-08-19T13:37:45;29.80;99.90
34283;DHT22;20542;49.828;8.746;2022-08-19T13:40:16;29.90;99.90
34283;DHT22;20542;49.828;8.746;2022-08-19T13:42:45;30.10;99.90
34283;DHT22;20542;49.828;8.746;2022-08-19T13:45:12;30.30;99.90
34283;DHT22;20542;49.828;8.746;2022-08-19T13:47:39;29.90;99.90
34283;DHT22;20542;49.828;8.746;2022-08-19T13:50:12;30.00;99.90
34283;DHT22;20542;49.828;8.746;2022-08-19T13:52:39;30.10;99.90
34283;DHT22;20542;49.828;8.746;2022-08-19T13:55:05;29.70;99.90
34283;DHT22;20542;49.828;8.746;2022-08-19T13:57:31;29.60;99.90
34283;DHT22;20542;49.828;8.746;2022-08-19T13:59:58;29.40;99.90
34283;DHT22;20542;49.828;8.746;2022-08-19T14:02:24;29.20;99.90
34283;DHT22;20542;49.828;8.746;2022-08-19T14:04:51;29.20;99.90
34283;DHT22;20542;49.828;8.746;2022-08-19T14:07:17;28.90;99.90
34283;DHT22;20542;49.828;8.746;2022-08-19T14:09:42;29.00;99.90
34283;DHT22;20542;49.828;8.746;2022-08-19T14:12:08;29.30;99.90
34283;DHT22;20542;49.828;8.746;2022-08-19T14:14:37;29.50;99.90
34283;DHT22;20542;49.828;8.746;2022-08-19T14:17:06;29.70;99.90
34283;DHT22;20542;49.828;8.746;2022-08-19T14:19:32;29.80;99.90
34283;DHT22;20542;49.828;8.746;2022-08-19T14:21:57;30.00;99.90
34283;DHT22;20542;49.828;8.746;2022-08-19T14:24:23;29.80;99.90
34283;DHT22;20542;49.828;8.746;2022-08-19T14:26:48;29.60;99.90
34283;DHT22;20542;49.828;8.746;2022-08-19T14:29:14;29.40;99.90
34283;DHT22;20542;49.828;8.746;2022-08-19T14:31:39;29.30;99.90
34283;DHT22;20542;49.828;8.746;2022-08-19T14:34:06;29.30;98.90
34283;DHT22;20542;49.828;8.746;2022-08-19T14:36:31;29.20;99.00
34283;DHT22;20542;49.828;8.746;2022-08-19T14:38:59;29.20;99.00
34283;DHT22;20542;49.828;8.746;2022-08-19T14:41:26;29.10;99.00
34283;DHT22;20542;49.828;8.746;2022-08-19T14:43:53;29.00;99.80
34283;DHT22;20542;49.828;8.746;2022-08-19T14:46:24;28.90;99.90
34283;DHT22;20542;49.828;8.746;2022-08-19T14:48:50;28.90;99.70
34283;DHT22;20542;49.828;8.746;2022-08-19T14:51:17;29.10;99.90
34283;DHT22;20542;49.828;8.746;2022-08-19T14:53:42;29.20;99.60
34283;DHT22;20542;49.828;8.746;2022-08-19T14:56:13;29.30;99.60
34283;DHT22;20542;49.828;8.746;2022-08-19T14:58:43;29.30;98.70
34283;DHT22;20542;49.828;8.746;2022-08-19T15:01:10;29.30;98.30
34283;DHT22;20542;49.828;8.746;2022-08-19T15:03:37;29.40;98.00
34283;DHT22;20542;49.828;8.746;2022-08-19T15:06:04;29.30;98.20
34283;DHT22;20542;49.828;8.746;2022-08-19T15:08:31;29.30;98.60
34283;DHT22;20542;49.828;8.746;2022-08-19T15:10:58;29.30;98.00
34283;DHT22;20542;49.828;8.746;2022-08-19T15:13:25;29.10;98.00
34283;DHT22;20542;49.828;8.746;2022-08-19T15:15:52;29.10;98.00
34283;DHT22;20542;49.828;8.746;2022-08-19T15:18:18;29.10;98.20
34283;DHT22;20542;49.828;8.746;2022-08-19T15:20:46;29.20;97.60
34283;DHT22;20542;49.828;8.746;2022-08-19T15:23:13;29.10;97.70
34283;DHT22;20542;49.828;8.746;2022-08-19T15:25:40;28.90;97.50
34283;DHT22;20542;49.828;8.746;2022-08-19T15:28:07;28.90;98.30
34283;DHT22;20542;49.828;8.746;2022-08-19T15:30:33;28.90;98.10
34283;DHT22;20542;49.828;8.746;2022-08-19T15:32:59;29.00;98.20
34283;DHT22;20542;49.828;8.746;2022-08-19T15:35:25;28.90;97.90
34283;DHT22;20542;49.828;8.746;2022-08-19T15:37:52;28.90;98.20
34283;DHT22;20542;49.828;8.746;2022-08-19T15:40:20;28.90;96.90
34283;DHT22;20542;49.828;8.746;2022-08-19T15:42:46;28.90;96.90